Архив погоды в Новоаннинском

Метеограмма Новоаннинский
Суббота, 20 Апреля
Время местн. Темп Ветер Видим Явления Облачность нижн/средн/верх Атм. давл. Влжн Точка росы ВНГО R Сост. почвы Tg s
Напр Скр Прв ур.ст ур.м изм
12:00 +13.1° С 2 - 20 км - ясно 762 770 -0.6 15% -12.7° более 2.5 км - - - -
09:00 +9.6° С,С-З 1 - 20 км - ясно 762 771 +0.2 30% -7.1° более 2.5 км - - - -
06:00 -2.8° штиль 0 - 20 км - ясно 762 771 -0.2 82% -5.5° более 2.5 км - Замерзшая - -
03:00 -2.3° штиль 0 - 20 км - ясно 762 772 +0.1 71% -6.8° более 2.5 км - - - -
00:00 +0.8° штиль 0 - 20 км - ясно 762 772 -0.2 58% -6.5° более 2.5 км - - - -
Пятница, 19 Апреля
Время местн. Темп Ветер Видим Явления Облачность нижн/средн/верх Атм. давл. Влжн Точка росы ВНГО R Сост. почвы Tg s
Напр Скр Прв ур.ст ур.м изм
21:00 +4.2° В,С-В 1 - 20 км - переменная облачность 762 772 +0.5 40% -8.3° более 2.5 км - - - -
18:00 +10.5° В 1 - 20 км - переменная облачность 762 771 -0.4 18% -12.9° 1.5 км - - - -
15:00 +10.8° В 3 - 20 км - переменная облачность 762 771 -0.8 17% -12.9° 1.5 км - - - -
12:00 +9.8° С-В 2 - 20 км - переменная облачность 763 772 -0.3 20% -12° более 2.5 км - - - -
09:00 +7.2° В 3 - 20 км - облачно с прояснениями 763 772 +0.7 26% -10.8° 1 км - - - -
06:00 -1.1° С,С-В 1 - 20 км - облачно с прояснениями 763 772 +0.2 69% -6.1° более 2.5 км 0 Влажная (без луж) -2° -
03:00 -0.4° С-В 1 - 20 км - облачно с прояснениями 762 772 +0.1 59% -7.4° более 2.5 км - - - -
00:00 +1.9° Ю-В 1 - 20 км - облачно с прояснениями 762 772 +0.2 44% -9.1° более 2.5 км - - - -
Четверг, 18 Апреля
Время местн. Темп Ветер Видим Явления Облачность нижн/средн/верх Атм. давл. Влжн Точка росы ВНГО R Сост. почвы Tg s
Напр Скр Прв ур.ст ур.м изм
21:00 +4.3° В 1 - 20 км - переменная облачность 762 771 +0.5 36% -9.5° более 2.5 км - - - -
18:00 +8.4° В 2 - 20 км - переменная облачность 762 771 -0.6 21% -12.5° более 2.5 км 0 - - -
15:00 +8.8° С-В 3 - 20 км - переменная облачность 762 771 -1.2 21% -12.2° более 2.5 км - - - -
12:00 +6.9° В 3 - 20 км - переменная облачность 763 773 -0.1 25% -11.9° более 2.5 км - - - -
09:00 +4.7° В,С-В 5 - 20 км - ясно 764 773 -0.5 39% -7.9° более 2.5 км - - - -
06:00 -2.5° С-В 2 - 20 км - ясно 764 773 +0.5 62% -8.7° более 2.5 км - Замерзшая - -
03:00 -1.5° С-В 2 - 20 км - ясно 764 773 +0.4 56% -9.1° более 2.5 км - - - -
00:00 +1.7° В 3 - 20 км - ясно 763 772 +0.5 37% -11.3° более 2.5 км - - - -
Среда, 17 Апреля
Время местн. Темп Ветер Видим Явления Облачность нижн/средн/верх Атм. давл. Влжн Точка росы ВНГО R Сост. почвы Tg s
Напр Скр Прв ур.ст ур.м изм
21:00 +3.7° В 3 11 20 км - переменная облачность 763 772 +1.7 34% -10.7° более 2.5 км - - - -
18:00 +7.7° В 5 - 20 км - переменная облачность 761 770 +0.7 23% -12.1° более 2.5 км - - - -
15:00 +9.4° В,С-В 6 12 20 км - облачно с прояснениями 760 769 +0.4 34% -5.6° 1 км - - - -
12:00 +7.7° В,С-В 6 13 20 км - преимущественно облачно 760 769 +1.1 51% -1.7° 1 км - - - -
09:00 +6.6° В 6 11 20 км - облачно с прояснениями 759 768 +1.3 62% -0.2° 1 км - - - -